createdAt,value
2023-02-24T00:01:52.296Z,61.51
2023-02-24T00:04:21.061Z,60.79
2023-02-24T00:06:48.408Z,61.17
2023-02-24T00:09:18.192Z,62.13
2023-02-24T00:11:48.037Z,62.03
2023-02-24T00:14:16.877Z,62.38
2023-02-24T00:16:45.085Z,62.80
2023-02-24T00:19:16.192Z,64.00
2023-02-24T00:21:43.268Z,65.23
2023-02-24T00:24:10.535Z,64.42
2023-02-24T00:26:37.509Z,64.72
2023-02-24T00:29:06.574Z,64.80
2023-02-24T00:31:33.419Z,64.74
2023-02-24T00:34:01.911Z,63.49
2023-02-24T00:36:30.559Z,63.26
2023-02-24T00:38:59.517Z,63.29
2023-02-24T00:41:31.866Z,63.28
2023-02-24T00:44:06.365Z,64.24
2023-02-24T00:46:37.244Z,64.15
2023-02-24T00:49:10.479Z,63.30
2023-02-24T00:51:39.717Z,63.78
2023-02-24T00:54:06.620Z,62.61
2023-02-24T00:56:33.264Z,62.95
2023-02-24T00:59:00.106Z,63.37
2023-02-24T01:01:31.342Z,63.71
2023-02-24T01:04:05.852Z,63.50
2023-02-24T01:06:34.405Z,62.89
2023-02-24T01:09:01.159Z,62.85
2023-02-24T01:11:51.202Z,64.77
2023-02-24T01:14:21.114Z,65.15
2023-02-24T01:16:50.331Z,64.29
2023-02-24T01:19:18.090Z,65.30
2023-02-24T01:21:46.130Z,63.06
2023-02-24T01:24:15.640Z,62.50
2023-02-24T01:26:42.882Z,61.55
2023-02-24T01:29:09.769Z,62.62
2023-02-24T01:31:43.182Z,61.52
2023-02-24T01:34:12.974Z,61.43
2023-02-24T01:36:43.309Z,61.16
2023-02-24T01:39:13.615Z,61.69
2023-02-24T01:41:41.956Z,62.01
2023-02-24T01:44:32.663Z,61.45
2023-02-24T01:47:03.703Z,62.01
2023-02-24T01:49:35.465Z,61.44
2023-02-24T01:52:19.052Z,61.43
2023-02-24T01:54:49.681Z,61.46
2023-02-24T01:57:20.974Z,61.69
2023-02-24T01:59:50.957Z,62.07
2023-02-24T02:02:19.412Z,62.29
2023-02-24T02:05:03.598Z,61.40
2023-02-24T02:07:30.497Z,60.82
2023-02-24T02:10:06.598Z,61.64
2023-02-24T02:12:38.465Z,62.09
2023-02-24T02:15:06.633Z,62.93
2023-02-24T02:17:40.857Z,64.28
2023-02-24T02:20:53.715Z,66.16
2023-02-24T02:23:42.750Z,65.35
2023-02-24T02:26:53.964Z,66.59
2023-02-24T02:29:35.664Z,65.47
2023-02-24T02:32:31.462Z,63.42
2023-02-24T02:35:14.036Z,61.90
2023-02-24T02:37:50.907Z,61.67
2023-02-24T02:40:29.426Z,61.34
2023-02-24T02:43:14.139Z,61.54
2023-02-24T02:46:04.246Z,62.39
2023-02-24T02:48:41.163Z,62.38
2023-02-24T02:51:11.815Z,62.37
2023-02-24T02:53:46.436Z,61.90
2023-02-24T02:56:17.841Z,61.64
2023-02-24T02:58:48.567Z,61.69
2023-02-24T03:01:48.411Z,61.41
2023-02-24T03:04:22.753Z,61.33
2023-02-24T03:06:56.013Z,61.67
2023-02-24T03:09:29.401Z,61.36
2023-02-24T03:12:03.314Z,61.40
2023-02-24T03:14:39.117Z,61.45
2023-02-24T03:17:16.217Z,60.99
2023-02-24T03:19:46.906Z,61.18
2023-02-24T03:22:35.899Z,61.12
2023-02-24T03:25:05.125Z,61.95
2023-02-24T03:27:49.638Z,63.59
2023-02-24T03:30:30.026Z,62.42
2023-02-24T03:33:05.307Z,62.28
2023-02-24T03:35:44.310Z,62.33
2023-02-24T03:38:14.120Z,63.93
2023-02-24T03:40:43.349Z,66.13
2023-02-24T03:43:19.848Z,64.77
2023-02-24T03:45:46.787Z,64.19
2023-02-24T03:48:13.645Z,63.76
2023-02-24T03:50:42.466Z,63.77
2023-02-24T03:53:39.329Z,63.28
2023-02-24T03:56:19.681Z,62.33
2023-02-24T03:59:13.668Z,62.37
2023-02-24T04:01:58.294Z,62.13
2023-02-24T04:04:52.841Z,62.03
2023-02-24T04:07:45.651Z,62.13
2023-02-24T04:10:58.446Z,61.93
2023-02-24T04:13:39.484Z,62.26
2023-02-24T04:16:36.404Z,62.04
2023-02-24T04:19:09.645Z,62.11
2023-02-24T04:21:39.139Z,63.29
2023-02-24T04:24:11.848Z,62.39
2023-02-24T04:26:42.846Z,61.61
2023-02-24T04:29:17.417Z,61.67
2023-02-24T04:31:50.193Z,61.95
2023-02-24T04:34:20.040Z,62.21
2023-02-24T04:36:49.745Z,62.71
2023-02-24T04:39:19.141Z,64.33
2023-02-24T04:41:50.314Z,66.03
2023-02-24T04:44:23.522Z,65.92
2023-02-24T04:46:50.832Z,66.03
2023-02-24T04:49:18.801Z,66.69
2023-02-24T04:51:46.420Z,66.61
2023-02-24T04:54:17.319Z,66.15
2023-02-24T04:56:45.365Z,67.56
2023-02-24T04:59:12.084Z,66.92
2023-02-24T05:01:39.846Z,67.32
2023-02-24T05:04:10.449Z,67.52
2023-02-24T05:06:46.159Z,68.05
2023-02-24T05:09:14.978Z,67.25
2023-02-24T05:11:43.544Z,66.79
2023-02-24T05:14:14.651Z,68.16
2023-02-24T05:16:43.649Z,67.66
2023-02-24T05:19:33.969Z,67.72
2023-02-24T05:22:02.952Z,70.11
2023-02-24T05:24:31.365Z,68.26
2023-02-24T05:26:59.176Z,68.55
2023-02-24T05:29:34.170Z,69.44
2023-02-24T05:32:01.323Z,69.81
2023-02-24T05:34:32.546Z,70.19
2023-02-24T05:37:01.922Z,68.80
2023-02-24T05:39:28.541Z,67.20
2023-02-24T05:41:57.182Z,68.83
2023-02-24T05:44:26.674Z,69.00
2023-02-24T05:47:00.189Z,67.74
2023-02-24T05:49:32.903Z,67.94
2023-02-24T05:52:05.519Z,67.11
2023-02-24T05:54:35.710Z,68.26
2023-02-24T05:57:07.384Z,67.75
2023-02-24T05:59:34.595Z,65.62
2023-02-24T06:02:09.808Z,66.00
2023-02-24T06:04:45.587Z,68.20
2023-02-24T06:07:22.803Z,68.36
2023-02-24T06:09:53.630Z,69.93
2023-02-24T06:12:22.545Z,69.22
2023-02-24T06:14:49.170Z,70.34
2023-02-24T06:17:17.108Z,70.65
2023-02-24T06:19:44.817Z,67.45
2023-02-24T06:22:16.094Z,70.62
2023-02-24T06:24:45.264Z,69.17
2023-02-24T06:27:17.665Z,68.63
2023-02-24T06:29:46.390Z,68.00
2023-02-24T06:32:13.081Z,70.55
2023-02-24T06:34:40.773Z,71.81
2023-02-24T06:37:10.869Z,70.47
2023-02-24T06:39:37.511Z,69.75
2023-02-24T06:42:05.721Z,69.08
2023-02-24T06:44:34.058Z,67.96
2023-02-24T06:47:01.018Z,68.96
2023-02-24T06:49:28.193Z,67.67
2023-02-24T06:51:55.739Z,67.42
2023-02-24T06:54:23.492Z,68.22
2023-02-24T06:56:50.182Z,69.70
2023-02-24T06:59:21.617Z,70.76
2023-02-24T07:01:48.800Z,70.65
2023-02-24T07:04:16.935Z,72.73
2023-02-24T07:06:46.164Z,72.17
2023-02-24T07:09:17.406Z,70.06
2023-02-24T07:11:51.948Z,68.26
2023-02-24T07:14:31.844Z,69.74
2023-02-24T07:16:59.450Z,68.77
2023-02-24T07:19:29.673Z,68.53
2023-02-24T07:22:00.330Z,67.92
2023-02-24T07:24:33.323Z,67.23
2023-02-24T07:27:05.898Z,66.85
2023-02-24T07:29:34.188Z,66.71
2023-02-24T07:32:03.718Z,67.75
2023-02-24T07:34:30.629Z,69.97
2023-02-24T07:36:57.758Z,68.73
2023-02-24T07:39:24.806Z,69.08
2023-02-24T07:41:53.052Z,69.84
2023-02-24T07:44:21.679Z,71.18
2023-02-24T07:46:49.168Z,71.57
2023-02-24T07:49:19.857Z,71.58
2023-02-24T07:51:52.497Z,72.63
2023-02-24T07:54:21.423Z,72.53
2023-02-24T07:56:56.344Z,73.38
2023-02-24T07:59:25.511Z,74.70
2023-02-24T08:01:55.552Z,74.59
2023-02-24T08:04:26.702Z,73.64
2023-02-24T08:06:57.508Z,74.47
2023-02-24T08:09:44.422Z,74.19
2023-02-24T08:12:15.430Z,74.68
2023-02-24T08:14:44.470Z,71.78
2023-02-24T08:17:12.037Z,70.35
2023-02-24T08:19:41.577Z,70.39
2023-02-24T08:22:19.402Z,71.00
2023-02-24T08:25:00.644Z,71.40
2023-02-24T08:27:32.294Z,71.21
2023-02-24T08:30:00.939Z,69.18
2023-02-24T08:32:43.419Z,69.06
2023-02-24T08:35:19.262Z,68.03
2023-02-24T08:37:48.547Z,67.12
2023-02-24T08:40:34.065Z,69.66
2023-02-24T08:43:22.461Z,69.72
2023-02-24T08:46:05.423Z,70.62
2023-02-24T08:48:55.357Z,69.84
2023-02-24T08:51:34.962Z,69.93
2023-02-24T08:54:15.437Z,70.30
2023-02-24T08:56:48.965Z,71.07
2023-02-24T08:59:36.979Z,69.54
2023-02-24T09:02:23.814Z,68.02
2023-02-24T09:04:55.289Z,68.08
2023-02-24T09:07:21.765Z,67.01
2023-02-24T09:09:48.995Z,67.98
2023-02-24T09:12:24.345Z,67.73
2023-02-24T09:14:55.655Z,68.60
2023-02-24T09:17:40.217Z,67.35
2023-02-24T09:20:30.347Z,67.49
2023-02-24T09:23:03.676Z,67.38
2023-02-24T09:25:41.440Z,68.57
2023-02-24T09:28:16.970Z,67.80
2023-02-24T09:30:53.512Z,68.70
2023-02-24T09:33:29.220Z,67.92
2023-02-24T09:36:12.818Z,68.47
2023-02-24T09:38:59.637Z,69.39
2023-02-24T09:42:17.932Z,68.43
2023-02-24T09:44:49.081Z,67.42
2023-02-24T09:47:30.964Z,68.61
2023-02-24T09:50:04.341Z,67.44
2023-02-24T09:52:41.019Z,66.93
2023-02-24T09:56:00.184Z,69.12
2023-02-24T09:58:47.739Z,70.87
2023-02-24T10:01:42.755Z,71.29
2023-02-24T10:04:20.724Z,72.58
2023-02-24T10:06:51.852Z,71.94
2023-02-24T10:09:34.620Z,71.95
2023-02-24T10:12:24.030Z,70.81
2023-02-24T10:15:21.072Z,72.02
2023-02-24T10:17:55.329Z,72.67
2023-02-24T10:20:39.359Z,73.58
2023-02-24T10:23:32.818Z,73.40
2023-02-24T10:26:21.897Z,73.29
2023-02-24T10:28:57.315Z,73.16
2023-02-24T10:31:27.315Z,72.99
2023-02-24T10:34:06.062Z,73.07
2023-02-24T10:36:36.161Z,73.46
2023-02-24T10:39:20.706Z,73.54
2023-02-24T10:42:15.415Z,73.38
2023-02-24T10:45:02.539Z,72.59
2023-02-24T10:47:31.162Z,72.10
2023-02-24T10:50:05.259Z,72.17
2023-02-24T10:52:37.032Z,72.08
2023-02-24T10:55:09.116Z,72.01
2023-02-24T10:57:58.571Z,71.41
2023-02-24T11:00:51.001Z,71.65
2023-02-24T11:03:35.777Z,71.82
2023-02-24T11:06:03.450Z,70.97
2023-02-24T11:08:54.431Z,70.17
2023-02-24T11:11:29.927Z,70.27
2023-02-24T11:14:20.220Z,70.24
2023-02-24T11:17:08.714Z,70.74
2023-02-24T11:19:47.518Z,69.83
2023-02-24T11:22:17.601Z,69.75
2023-02-24T11:24:46.146Z,70.52
2023-02-24T11:27:14.919Z,69.94
2023-02-24T11:30:06.220Z,69.64
2023-02-24T11:32:59.103Z,68.63
2023-02-24T11:35:42.034Z,68.95
2023-02-24T11:38:27.792Z,68.67
2023-02-24T11:41:07.868Z,68.19
2023-02-24T11:43:40.197Z,68.73
2023-02-24T11:46:14.678Z,69.68
2023-02-24T11:48:47.153Z,69.46
2023-02-24T11:51:18.796Z,68.76
2023-02-24T11:53:56.680Z,69.23
2023-02-24T11:56:28.173Z,68.45
2023-02-24T11:59:00.098Z,68.73
2023-02-24T12:01:32.156Z,69.60
2023-02-24T12:04:26.664Z,68.84
2023-02-24T12:07:15.035Z,69.51
2023-02-24T12:09:47.940Z,69.04
2023-02-24T12:12:24.431Z,69.26
2023-02-24T12:14:56.946Z,68.46
2023-02-24T12:17:31.298Z,67.53
2023-02-24T12:20:06.092Z,68.16
2023-02-24T12:22:49.000Z,67.74
2023-02-24T12:25:16.712Z,66.98
2023-02-24T12:28:04.719Z,67.81
2023-02-24T12:30:57.453Z,67.71
2023-02-24T12:33:36.067Z,67.71
2023-02-24T12:36:25.255Z,67.61
2023-02-24T12:39:11.511Z,66.40
2023-02-24T12:42:24.745Z,67.38
2023-02-24T12:45:11.418Z,67.07
2023-02-24T12:48:03.127Z,66.28
2023-02-24T12:51:07.471Z,67.30
2023-02-24T12:53:50.337Z,67.04
2023-02-24T12:56:41.729Z,67.02
2023-02-24T12:59:12.433Z,67.51
2023-02-24T13:01:48.566Z,66.56
2023-02-24T13:04:29.453Z,65.92
2023-02-24T13:07:01.650Z,66.86
2023-02-24T13:09:36.010Z,67.15
2023-02-24T13:12:24.094Z,68.30
2023-02-24T13:14:51.335Z,67.47
2023-02-24T13:17:24.332Z,66.88
2023-02-24T13:19:53.826Z,66.83
2023-02-24T13:22:29.567Z,66.44
2023-02-24T13:25:10.161Z,66.38
2023-02-24T13:27:40.740Z,66.47
2023-02-24T13:30:18.247Z,66.05
2023-02-24T13:33:00.354Z,66.25
2023-02-24T13:35:26.959Z,66.59
2023-02-24T13:37:54.441Z,66.37
2023-02-24T13:40:26.357Z,66.36
2023-02-24T13:43:01.558Z,66.59
2023-02-24T13:45:33.697Z,66.21
2023-02-24T13:48:09.357Z,66.23
2023-02-24T13:50:58.574Z,66.30
2023-02-24T13:53:40.656Z,66.43
2023-02-24T13:56:29.002Z,66.91
2023-02-24T13:59:18.404Z,65.74
2023-02-24T14:02:07.894Z,66.24
2023-02-24T14:04:39.343Z,66.78
2023-02-24T14:07:11.482Z,66.08
2023-02-24T14:09:43.020Z,66.36
2023-02-24T14:12:14.360Z,66.90
2023-02-24T14:14:44.286Z,66.50
2023-02-24T14:17:31.011Z,66.55
2023-02-24T14:20:09.662Z,66.05
2023-02-24T14:22:48.568Z,66.63
2023-02-24T14:25:16.472Z,66.68
2023-02-24T14:27:45.789Z,66.33
2023-02-24T14:30:26.191Z,66.97
2023-02-24T14:32:53.365Z,67.28
2023-02-24T14:35:32.045Z,67.35
2023-02-24T14:38:00.283Z,67.13
2023-02-24T14:40:28.639Z,66.84
2023-02-24T14:42:57.032Z,67.10
2023-02-24T14:45:27.139Z,66.52
2023-02-24T14:47:56.066Z,66.51
2023-02-24T14:50:34.038Z,66.25
2023-02-24T14:53:12.965Z,66.77
2023-02-24T14:55:42.838Z,66.74
2023-02-24T14:58:44.679Z,66.19
2023-02-24T15:01:30.450Z,66.36
2023-02-24T15:04:00.951Z,66.14
2023-02-24T15:06:31.092Z,66.81
2023-02-24T15:09:01.365Z,66.51
2023-02-24T15:11:31.443Z,66.71
2023-02-24T15:14:01.673Z,66.50
2023-02-24T15:16:41.863Z,67.06
2023-02-24T15:19:27.322Z,67.22
2023-02-24T15:21:54.191Z,66.92
2023-02-24T15:24:35.006Z,66.92
2023-02-24T15:27:20.129Z,67.47
2023-02-24T15:30:09.997Z,66.96
2023-02-24T15:32:38.280Z,67.38
2023-02-24T15:35:05.805Z,67.51
2023-02-24T15:37:42.239Z,67.27
2023-02-24T15:40:28.545Z,67.63
2023-02-24T15:43:09.793Z,67.80
2023-02-24T15:45:38.856Z,67.53
2023-02-24T15:48:23.161Z,67.74
2023-02-24T15:50:52.856Z,67.71
2023-02-24T15:53:19.476Z,67.67
2023-02-24T15:55:46.060Z,67.62
2023-02-24T15:58:17.735Z,67.53
2023-02-24T16:00:45.474Z,67.64
2023-02-24T16:03:12.478Z,67.23
2023-02-24T16:05:39.389Z,66.90
2023-02-24T16:08:12.954Z,66.73
2023-02-24T16:10:40.588Z,66.90
2023-02-24T16:13:14.900Z,67.26
2023-02-24T16:15:44.219Z,67.07
2023-02-24T16:18:20.955Z,66.28
2023-02-24T16:20:56.628Z,66.79
2023-02-24T16:23:26.007Z,66.99
2023-02-24T16:25:57.718Z,66.85
2023-02-24T16:28:25.402Z,67.29
2023-02-24T16:30:52.642Z,67.65
2023-02-24T16:33:22.474Z,67.49
2023-02-24T16:35:53.159Z,67.56
2023-02-24T16:38:21.412Z,67.62
2023-02-24T16:40:49.741Z,67.28
2023-02-24T16:43:16.800Z,66.99
2023-02-24T16:45:45.107Z,67.63
2023-02-24T16:48:20.991Z,67.81
2023-02-24T16:50:48.461Z,68.47
2023-02-24T16:53:22.538Z,69.49
2023-02-24T16:55:49.701Z,70.08
2023-02-24T16:58:16.516Z,69.59
2023-02-24T17:00:45.732Z,69.79
2023-02-24T17:03:23.990Z,70.03
2023-02-24T17:05:51.112Z,68.80
2023-02-24T17:08:18.503Z,69.39
2023-02-24T17:10:46.028Z,69.52
2023-02-24T17:13:14.640Z,68.46
2023-02-24T17:15:41.322Z,69.00
2023-02-24T17:18:08.394Z,68.79
2023-02-24T17:20:36.009Z,68.87
2023-02-24T17:23:02.692Z,68.11
2023-02-24T17:25:31.348Z,68.24
2023-02-24T17:27:58.926Z,68.83
2023-02-24T17:30:31.570Z,68.54
2023-02-24T17:32:58.225Z,68.93
2023-02-24T17:35:25.724Z,68.91
2023-02-24T17:37:52.757Z,68.28
2023-02-24T17:40:20.136Z,67.79
2023-02-24T17:42:46.975Z,68.41
2023-02-24T17:45:14.932Z,68.30
2023-02-24T17:47:42.223Z,68.15
2023-02-24T17:50:10.818Z,67.41
2023-02-24T17:52:37.655Z,67.13
2023-02-24T17:55:05.079Z,68.63
2023-02-24T17:57:34.731Z,68.08
2023-02-24T18:00:01.419Z,69.20
2023-02-24T18:02:28.131Z,69.06
2023-02-24T18:04:55.304Z,68.92
2023-02-24T18:07:21.990Z,68.56
2023-02-24T18:09:48.572Z,68.27
2023-02-24T18:12:17.174Z,68.68
2023-02-24T18:14:43.923Z,69.12
2023-02-24T18:17:10.944Z,69.74
2023-02-24T18:19:37.617Z,69.44
2023-02-24T18:22:04.151Z,69.15
2023-02-24T18:24:30.708Z,68.21
2023-02-24T18:26:57.283Z,68.89
2023-02-24T18:29:23.907Z,67.28
2023-02-24T18:31:50.818Z,67.71
2023-02-24T18:34:17.557Z,68.23
2023-02-24T18:36:44.203Z,67.90
2023-02-24T18:39:14.600Z,68.20
2023-02-24T18:41:41.672Z,68.15
2023-02-24T18:44:09.062Z,67.82
2023-02-24T18:46:36.194Z,67.99
2023-02-24T18:49:03.722Z,67.95
2023-02-24T18:51:30.421Z,68.23
2023-02-24T18:53:58.361Z,67.50
2023-02-24T18:56:26.916Z,67.06
2023-02-24T18:58:58.903Z,67.36
2023-02-24T19:01:28.696Z,67.15
2023-02-24T19:03:55.654Z,67.51
2023-02-24T19:06:24.593Z,67.52
2023-02-24T19:09:05.827Z,67.72
2023-02-24T19:11:32.871Z,67.94
2023-02-24T19:14:00.688Z,67.18
2023-02-24T19:16:27.931Z,67.94
2023-02-24T19:18:56.698Z,68.33
2023-02-24T19:21:24.455Z,67.38
2023-02-24T19:23:51.217Z,67.76
2023-02-24T19:26:21.352Z,68.24
2023-02-24T19:28:48.686Z,68.84
2023-02-24T19:31:18.528Z,68.39
2023-02-24T19:33:45.348Z,68.82
2023-02-24T19:36:12.049Z,69.20
2023-02-24T19:38:41.940Z,69.67
2023-02-24T19:41:08.598Z,68.45
2023-02-24T19:43:35.340Z,70.18
2023-02-24T19:46:06.765Z,69.75
2023-02-24T19:48:34.290Z,69.97
2023-02-24T19:51:11.515Z,69.43
2023-02-24T19:53:38.150Z,69.08
2023-02-24T19:56:05.385Z,69.90
2023-02-24T19:58:32.231Z,69.55
2023-02-24T20:01:10.980Z,70.33
2023-02-24T20:03:39.114Z,69.27
2023-02-24T20:06:06.382Z,69.91
2023-02-24T20:08:35.066Z,69.13
2023-02-24T20:11:03.415Z,69.58
2023-02-24T20:13:30.395Z,69.95
2023-02-24T20:16:07.355Z,69.94
2023-02-24T20:18:33.984Z,69.66
2023-02-24T20:21:00.944Z,69.60
2023-02-24T20:23:27.891Z,68.97
2023-02-24T20:25:56.457Z,67.92
2023-02-24T20:28:23.977Z,69.06
2023-02-24T20:30:51.247Z,68.30
2023-02-24T20:33:18.681Z,67.63
2023-02-24T20:35:45.360Z,68.64
2023-02-24T20:38:12.050Z,66.40
2023-02-24T20:40:39.192Z,66.90
2023-02-24T20:43:07.632Z,66.41
2023-02-24T20:45:36.526Z,65.94
2023-02-24T20:48:04.069Z,65.17
2023-02-24T20:50:31.185Z,64.62
2023-02-24T20:52:57.817Z,63.53
2023-02-24T20:55:24.352Z,64.02
2023-02-24T20:57:50.942Z,63.93
2023-02-24T21:00:17.919Z,64.00
2023-02-24T21:02:44.754Z,63.80
2023-02-24T21:05:20.329Z,63.71
2023-02-24T21:07:50.041Z,63.92
2023-02-24T21:10:17.658Z,64.49
2023-02-24T21:12:45.001Z,64.12
2023-02-24T21:15:12.259Z,65.27
2023-02-24T21:17:39.423Z,67.83
2023-02-24T21:20:10.680Z,67.58
2023-02-24T21:22:39.101Z,68.45
2023-02-24T21:25:07.270Z,67.72
2023-02-24T21:27:34.138Z,66.91
2023-02-24T21:30:00.834Z,66.01
2023-02-24T21:32:27.636Z,66.21
2023-02-24T21:34:54.675Z,65.64
2023-02-24T21:37:21.268Z,65.50
2023-02-24T21:39:47.847Z,65.40
2023-02-24T21:42:14.489Z,66.15
2023-02-24T21:44:43.551Z,67.28
2023-02-24T21:47:11.143Z,69.15
2023-02-24T21:49:37.848Z,68.30
2023-02-24T21:52:09.745Z,68.49
2023-02-24T21:54:36.300Z,68.64
2023-02-24T21:57:04.087Z,69.48
2023-02-24T21:59:30.624Z,69.47
2023-02-24T22:01:57.318Z,68.61
2023-02-24T22:04:23.922Z,68.82
2023-02-24T22:06:50.535Z,69.38
2023-02-24T22:09:20.502Z,68.90
2023-02-24T22:11:49.203Z,68.96
2023-02-24T22:14:15.985Z,69.51
2023-02-24T22:16:42.935Z,69.76
2023-02-24T22:19:10.247Z,69.54
2023-02-24T22:21:39.207Z,68.34
2023-02-24T22:24:06.104Z,67.81
2023-02-24T22:26:32.732Z,68.18
2023-02-24T22:29:00.118Z,68.33
2023-02-24T22:31:29.630Z,68.66
2023-02-24T22:33:56.514Z,69.43
2023-02-24T22:36:25.589Z,68.58
2023-02-24T22:38:53.055Z,68.68
2023-02-24T22:41:25.735Z,68.60
2023-02-24T22:43:53.950Z,68.74
2023-02-24T22:46:27.012Z,69.30
2023-02-24T22:48:55.024Z,69.98
2023-02-24T22:51:22.155Z,69.76
2023-02-24T22:53:49.708Z,70.29
2023-02-24T22:56:24.470Z,70.32
2023-02-24T22:58:51.289Z,70.08
2023-02-24T23:01:29.853Z,70.09
2023-02-24T23:03:59.641Z,69.53
2023-02-24T23:06:26.570Z,69.34
2023-02-24T23:08:54.406Z,68.25
2023-02-24T23:11:24.685Z,67.91
2023-02-24T23:13:51.817Z,67.65
2023-02-24T23:16:22.107Z,67.72
2023-02-24T23:18:50.746Z,68.77
2023-02-24T23:21:22.184Z,67.51
2023-02-24T23:23:49.920Z,67.54
2023-02-24T23:26:17.948Z,67.07
2023-02-24T23:28:44.721Z,67.26
2023-02-24T23:31:17.706Z,66.83
2023-02-24T23:33:44.410Z,66.44
2023-02-24T23:36:11.039Z,66.31
2023-02-24T23:38:37.636Z,66.64
2023-02-24T23:41:08.209Z,65.95
2023-02-24T23:43:35.044Z,66.16
2023-02-24T23:46:13.098Z,66.25
2023-02-24T23:48:40.227Z,66.17
2023-02-24T23:51:12.309Z,65.79
2023-02-24T23:53:44.612Z,65.78
2023-02-24T23:56:23.184Z,65.79
2023-02-24T23:58:59.403Z,65.17
